Thursday, January 17, 2019, 5:01 AM CST
Back to Local

KIGQ, Chicago, Lansing Municipal Airport

Location: Chicago Heights, IL, United States Lat: 41.54
Local Time: 5:01 AM CST (11:01 GMT) Lon: -87.532
Time Zone: US/Central Elev: 616 ft

Show me the last for .
Show Decoded

2019-01-17 04:35 METAR KIGQ 171035Z AUTO 09003KT 10SM OVC016 M02/M05 A3014 RMK AO2 T10211050 =
2019-01-17 04:15 METAR KIGQ 171015Z AUTO 09003KT 10SM BKN018 OVC022 M02/M05 A3015 RMK AO2
                 T10221052 =
2019-01-17 03:55 METAR KIGQ 170955Z AUTO 10005KT 10SM OVC018 M02/M05 A3016 RMK AO2 T10231055 =
2019-01-17 03:35 METAR KIGQ 170935Z AUTO 10003KT 10SM OVC020 M02/M06 A3017 RMK AO2 T10231056 =
2019-01-17 03:15 METAR KIGQ 170915Z AUTO 10003KT 10SM OVC022 M02/M06 A3019 RMK AO2 T10231058 =
2019-01-17 02:55 METAR KIGQ 170855Z AUTO 09003KT 10SM OVC022 M02/M06 A3019 RMK AO2 T10241060 =
2019-01-17 02:35 METAR KIGQ 170835Z AUTO 08004KT 10SM OVC022 M02/M06 A3020 RMK AO2 T10251061 =
2019-01-17 02:15 METAR KIGQ 170815Z AUTO 08003KT 10SM OVC024 M02/M06 A3021 RMK AO2 T10251060 =
2019-01-17 01:55 METAR KIGQ 170755Z AUTO 10003KT 10SM OVC026 M02/M06 A3021 RMK AO2 T10251061 =
2019-01-17 01:35 METAR KIGQ 170735Z AUTO 07006KT 10SM OVC028 M02/M06 A3020 RMK AO2 T10251062 =
2019-01-17 01:15 METAR KIGQ 170715Z AUTO 06004KT 10SM OVC028 M02/M06 A3021 RMK AO2 T10251062 =
2019-01-17 00:55 METAR KIGQ 170655Z AUTO 09003KT 10SM OVC028 M02/M06 A3022 RMK AO2 T10251059 =
2019-01-17 00:35 METAR KIGQ 170635Z AUTO 07003KT 10SM OVC030 M02/M06 A3022 RMK AO2 T10251062 =
2019-01-17 00:15 METAR KIGQ 170615Z AUTO 08006KT 10SM OVC030 M02/M06 A3023 RMK AO2 T10251060 =
2019-01-16 23:55 METAR KIGQ 170555Z AUTO 09005KT 10SM OVC030 M02/M06 A3024 RMK AO2 T10251058
                 11010 21025 400101025 =
2019-01-16 23:35 METAR KIGQ 170535Z AUTO 09007KT 10SM OVC030 M02/M05 A3024 RMK AO2 T10231055 =
2019-01-16 23:15 METAR KIGQ 170515Z AUTO 10007KT 10SM OVC030 M02/M05 A3025 RMK AO2 T10211052 =
2019-01-16 22:55 METAR KIGQ 170455Z AUTO 09006KT 10SM OVC030 M02/M05 A3025 RMK AO2 T10201051 =
2019-01-16 22:35 METAR KIGQ 170435Z AUTO 08006KT 10SM OVC032 M02/M05 A3026 RMK AO2 T10191051 =
2019-01-16 22:15 METAR KIGQ 170415Z AUTO 08007KT 10SM BKN032 M02/M05 A3026 RMK AO2 T10181051 =
2019-01-16 21:55 METAR KIGQ 170355Z AUTO 07006KT 10SM CLR M02/M05 A3026 RMK AO2 T10181050 =
2019-01-16 21:35 METAR KIGQ 170335Z AUTO 08006KT 10SM SCT030 M02/M05 A3027 RMK AO2 T10161050 =
2019-01-16 21:15 METAR KIGQ 170315Z AUTO 08006KT 10SM OVC030 M02/M05 A3027 RMK AO2 T10161050 =
2019-01-16 20:55 METAR KIGQ 170255Z AUTO 07006KT 10SM OVC030 M01/M05 A3026 RMK AO2 T10151050 =
2019-01-16 20:35 METAR KIGQ 170235Z AUTO 07007KT 10SM OVC030 M01/M05 A3027 RMK AO2 T10151050 =
2019-01-16 20:15 METAR KIGQ 170215Z AUTO 08007KT 10SM OVC028 M01/M05 A3028 RMK AO2 T10131050 =
2019-01-16 19:55 METAR KIGQ 170155Z AUTO 07006KT 10SM OVC026 M01/M05 A3028 RMK AO2 T10121048 =
2019-01-16 19:35 METAR KIGQ 170135Z AUTO 06006KT 10SM OVC024 M01/M05 A3028 RMK AO2 T10121046 =
2019-01-16 19:15 METAR KIGQ 170115Z AUTO 09007KT 10SM OVC024 M01/M04 A3029 RMK AO2 T10121044 =
2019-01-16 18:55 METAR KIGQ 170055Z AUTO 08005KT 10SM OVC024 M01/M04 A3029 RMK AO2 T10111041 =
2019-01-16 18:35 METAR KIGQ 170035Z AUTO 08007KT 10SM OVC024 M01/M04 A3029 RMK AO2 T10101042 =
2019-01-16 18:15 METAR KIGQ 170015Z AUTO 09006KT 10SM OVC024 M01/M04 A3028 RMK AO2 T10101040 =
2019-01-16 17:55 METAR KIGQ 162355Z AUTO 08006KT 10SM OVC024 M01/M04 A3028 RMK AO2 T10101040
                 10010 21010 =
2019-01-16 17:35 METAR KIGQ 162335Z AUTO 07007KT 10SM OVC024 M01/M04 A3027 RMK AO2 T10071039 =
2019-01-16 17:15 METAR KIGQ 162315Z AUTO 07006KT 10SM OVC022 00/M04 A3027 RMK AO2 T10051036 =
2019-01-16 16:55 METAR KIGQ 162255Z AUTO 05007KT 10SM OVC023 00/M04 A3026 RMK AO2 T10051037 =
2019-01-16 16:35 METAR KIGQ 162235Z AUTO 08005KT 10SM BKN022 OVC026 00/M03 A3026 RMK AO2
                 T10051035 =
2019-01-16 16:15 METAR KIGQ 162215Z AUTO 09007KT 10SM OVC019 00/M03 A3026 RMK AO2 T10031035 =
2019-01-16 15:55 METAR KIGQ 162155Z AUTO 07010KT 10SM UP OVC019 00/M03 A3026 RMK AO2 T10021032 =
2019-01-16 15:35 METAR KIGQ 162135Z AUTO 05006KT 10SM -RA BKN019 OVC027 00/M03 A3025 RMK AO2
                 T10011031 =
2019-01-16 15:15 METAR KIGQ 162115Z AUTO 06008KT 10SM OVC031 00/M03 A3026 RMK AO2 T00001031 =
2019-01-16 14:55 METAR KIGQ 162055Z AUTO 02004KT 10SM OVC033 00/M03 A3026 RMK AO2 T00011035 =
2019-01-16 14:35 METAR KIGQ 162035Z AUTO 01006KT 10SM OVC033 00/M04 A3025 RMK AO2 T00031041 =
2019-01-16 14:15 METAR KIGQ 162015Z AUTO 02006KT 10SM OVC033 01/M05 A3024 RMK AO2 T00081049 =
2019-01-16 13:55 METAR KIGQ 161955Z AUTO 00000KT 10SM OVC033 01/M05 A3024 RMK AO2 T00081049 =
2019-01-16 13:35 METAR KIGQ 161935Z AUTO 05006KT 10SM OVC033 01/M05 A3024 RMK AO2 T00101049 =
2019-01-16 13:15 METAR KIGQ 161915Z AUTO 05004KT 10SM OVC035 01/M05 A3024 RMK AO2 T00101051 =
2019-01-16 12:55 METAR KIGQ 161855Z AUTO 03005KT 10SM OVC035 01/M05 A3025 RMK AO2 T00081051 =
2019-01-16 12:35 METAR KIGQ 161835Z AUTO 01004KT 10SM OVC035 01/M05 A3025 RMK AO2 T00071050 =
2019-01-16 12:15 METAR KIGQ 161815Z AUTO 36005KT 10SM OVC035 01/M05 A3026 RMK AO2 T00061046 =
2019-01-16 11:55 METAR KIGQ 161755Z AUTO 36005KT 10SM OVC033 01/M04 A3026 RMK AO2 T00061045 10008
                 20000 =
2019-01-16 11:35 METAR KIGQ 161735Z AUTO 01006KT 10SM OVC033 01/M04 A3027 RMK AO2 T00051044 =
2019-01-16 11:15 METAR KIGQ 161715Z AUTO 36005KT 10SM OVC033 01/M04 A3026 RMK AO2 T00051041 =
2019-01-16 10:55 METAR KIGQ 161655Z AUTO 36007KT 10SM OVC033 01/M04 A3026 RMK AO2 T00051042 =
2019-01-16 10:35 METAR KIGQ 161635Z AUTO 36006KT 10SM OVC033 01/M04 A3026 RMK AO2 T00051041 =
2019-01-16 10:15 METAR KIGQ 161615Z AUTO 01006KT 10SM OVC033 00/M04 A3026 RMK AO2 T00021041 =
2019-01-16 09:55 METAR KIGQ 161555Z AUTO 36007KT 10SM OVC033 00/M04 A3026 RMK AO2 T00011044 =
2019-01-16 09:35 METAR KIGQ 161535Z AUTO 36009KT 10SM OVC031 00/M04 A3025 RMK AO2 T00001043 =
2019-01-16 09:15 METAR KIGQ 161515Z AUTO 35008KT 10SM OVC031 00/M04 A3024 RMK AO2 T00001040 =
2019-01-16 08:55 METAR KIGQ 161455Z AUTO 01007KT 10SM OVC031 00/M04 A3023 RMK AO2 T00001038 =
2019-01-16 08:35 METAR KIGQ 161435Z AUTO 02006KT 10SM OVC031 00/M04 A3021 RMK AO2 T00001036 =
2019-01-16 08:15 METAR KIGQ 161415Z AUTO 36005G08KT 10SM OVC029 00/M03 A3021 RMK AO2 T00001035 =
2019-01-16 07:55 METAR KIGQ 161355Z AUTO 01007KT 10SM OVC027 00/M03 A3020 RMK AO2 T00001030 =
2019-01-16 07:35 METAR KIGQ 161335Z AUTO 01004KT 10SM OVC027 01/M02 A3019 RMK AO2 T00051020 =
2019-01-16 07:15 METAR KIGQ 161315Z AUTO 00000KT 10SM BKN025 OVC030 01/M01 A3018 RMK AO2
                 T00061013 =
2019-01-16 06:55 METAR KIGQ 161255Z AUTO 00000KT 10SM OVC025 01/M01 A3017 RMK AO2 T00061011 =
2019-01-16 06:35 METAR KIGQ 161235Z AUTO 33003KT 10SM OVC023 01/M01 A3017 RMK AO2 T00061011 =
2019-01-16 06:15 METAR KIGQ 161215Z AUTO 30003KT 10SM OVC021 01/M01 A3016 RMK AO2 T00061012 =
2019-01-16 05:55 METAR KIGQ 161155Z AUTO 00000KT 10SM OVC023 01/M01 A3016 RMK AO2 T00071011 10007
                 21001 =
2019-01-16 05:35 METAR KIGQ 161135Z AUTO 32003KT 10SM OVC021 01/M01 A3014 RMK AO2 T00051006 =
2019-01-16 05:15 METAR KIGQ 161115Z AUTO 30003KT 7SM OVC021 01/00 A3014 RMK AO2 T00051005 =

Support USWX by starting your Amazon purchase here.